createdAt,value
2019-06-07T00:00:51.201Z,59.50
2019-06-07T00:01:58.605Z,59.70
2019-06-07T00:03:10.643Z,59.70
2019-06-07T00:04:16.317Z,59.80
2019-06-07T00:05:24.303Z,59.90
2019-06-07T00:06:31.542Z,59.90
2019-06-07T00:07:39.640Z,59.90
2019-06-07T00:08:46.865Z,59.90
2019-06-07T00:09:54.859Z,60.00
2019-06-07T00:11:02.144Z,60.10
2019-06-07T00:12:12.062Z,60.10
2019-06-07T00:13:20.366Z,60.20
2019-06-07T00:14:28.574Z,60.40
2019-06-07T00:15:35.798Z,60.40
2019-06-07T00:16:43.794Z,60.40
2019-06-07T00:17:51.017Z,60.60
2019-06-07T00:18:59.043Z,60.70
2019-06-07T00:20:09.337Z,61.20
2019-06-07T00:21:17.920Z,61.40
2019-06-07T00:22:32.937Z,61.70
2019-06-07T00:23:35.649Z,61.80
2019-06-07T00:24:43.940Z,62.10
2019-06-07T00:25:52.035Z,62.40
2019-06-07T00:26:59.399Z,62.40
2019-06-07T00:28:08.215Z,62.60
2019-06-07T00:29:18.549Z,62.90
2019-06-07T00:30:50.212Z,62.90
2019-06-07T00:31:34.784Z,62.90
2019-06-07T00:32:42.865Z,63.20
2019-06-07T00:33:50.146Z,63.30
2019-06-07T00:34:58.169Z,63.50
2019-06-07T00:36:05.954Z,63.70
2019-06-07T00:37:14.252Z,63.90
2019-06-07T00:38:22.128Z,64.00
2019-06-07T00:39:30.294Z,64.10
2019-06-07T00:40:37.550Z,64.30
2019-06-07T00:41:45.546Z,64.30
2019-06-07T00:42:52.785Z,64.30
2019-06-07T00:44:00.802Z,64.30
2019-06-07T00:45:08.718Z,64.30
2019-06-07T00:46:18.818Z,64.30
2019-06-07T00:47:25.932Z,64.30
2019-06-07T00:48:34.010Z,64.50
2019-06-07T00:49:41.798Z,64.30
2019-06-07T00:50:49.812Z,64.30
2019-06-07T00:51:57.052Z,64.50
2019-06-07T00:53:17.171Z,64.50
2019-06-07T00:54:15.736Z,65.80
2019-06-07T00:55:27.517Z,65.00
2019-06-07T00:56:32.585Z,65.00
2019-06-07T00:57:41.629Z,65.20
2019-06-07T00:59:09.752Z,65.20
2019-06-07T00:59:58.691Z,65.30
2019-06-07T01:01:05.932Z,65.40
2019-06-07T01:02:14.712Z,65.40
2019-06-07T01:03:25.626Z,65.60
2019-06-07T01:04:32.514Z,65.60
2019-06-07T01:05:39.722Z,65.50
2019-06-07T01:06:47.748Z,65.60
2019-06-07T01:07:54.986Z,65.60
2019-06-07T01:09:03.008Z,65.60
2019-06-07T01:10:17.385Z,65.80
2019-06-07T01:11:26.235Z,65.70
2019-06-07T01:12:33.520Z,65.60
2019-06-07T01:13:41.509Z,65.60
2019-06-07T01:14:48.721Z,65.60
2019-06-07T01:15:56.728Z,65.70
2019-06-07T01:17:39.659Z,65.70
2019-06-07T01:18:40.923Z,65.70
2019-06-07T01:19:44.836Z,65.40
2019-06-07T01:20:52.844Z,65.40
2019-06-07T01:22:00.069Z,66.30
2019-06-07T01:23:51.868Z,65.50
2019-06-07T01:24:17.595Z,65.50
2019-06-07T01:25:26.483Z,65.40
2019-06-07T01:26:34.283Z,65.10
2019-06-07T01:27:42.301Z,65.50
2019-06-07T01:28:49.512Z,65.10
2019-06-07T01:29:57.563Z,65.00
2019-06-07T01:31:04.792Z,65.10
2019-06-07T01:32:12.814Z,65.00
2019-06-07T01:33:20.795Z,65.00
2019-06-07T01:34:29.525Z,64.90
2019-06-07T01:35:36.739Z,64.80
2019-06-07T01:36:44.728Z,64.80
2019-06-07T01:37:51.951Z,64.80
2019-06-07T01:39:00.659Z,64.90
2019-06-07T01:40:10.381Z,64.70
2019-06-07T01:41:23.074Z,64.70
2019-06-07T01:42:30.479Z,65.30
2019-06-07T01:43:37.035Z,64.50
2019-06-07T01:44:44.278Z,64.50
2019-06-07T01:45:52.327Z,64.30
2019-06-07T01:46:59.554Z,64.10
2019-06-07T01:48:07.576Z,63.50
2019-06-07T01:49:14.784Z,63.30
2019-06-07T01:50:25.366Z,63.20
2019-06-07T01:51:31.800Z,63.20
2019-06-07T01:52:39.822Z,63.30
2019-06-07T01:53:47.046Z,63.10
2019-06-07T01:54:58.633Z,63.20
2019-06-07T01:56:04.018Z,63.10
2019-06-07T01:57:30.978Z,63.00
2019-06-07T01:58:22.235Z,63.00
2019-06-07T01:59:31.883Z,62.70
2019-06-07T02:00:39.393Z,62.60
2019-06-07T02:01:47.363Z,62.60
2019-06-07T02:02:54.584Z,62.50
2019-06-07T02:04:03.382Z,62.60
2019-06-07T02:05:10.887Z,62.50
2019-06-07T02:06:20.583Z,62.40
2019-06-07T02:07:32.608Z,62.20
2019-06-07T02:08:37.558Z,62.10
2019-06-07T02:09:44.802Z,62.00
2019-06-07T02:10:52.808Z,62.00
2019-06-07T02:12:00.033Z,62.00
2019-06-07T02:13:08.055Z,61.80
2019-06-07T02:14:15.277Z,61.40
2019-06-07T02:15:28.008Z,61.20
2019-06-07T02:16:32.731Z,61.20
2019-06-07T02:17:40.721Z,61.30
2019-06-07T02:19:01.293Z,61.50
2019-06-07T02:19:57.654Z,61.60
2019-06-07T02:21:04.887Z,61.70
2019-06-07T02:22:12.862Z,61.70
2019-06-07T02:23:20.667Z,61.70
2019-06-07T02:24:32.381Z,61.70
2019-06-07T02:25:48.583Z,61.70
2019-06-07T02:26:48.955Z,61.60
2019-06-07T02:28:25.942Z,61.70
2019-06-07T02:29:06.005Z,61.60
2019-06-07T02:31:27.716Z,61.60
2019-06-07T02:32:36.691Z,61.70
2019-06-07T02:33:43.368Z,61.70
2019-06-07T02:34:50.623Z,61.40
2019-06-07T02:35:58.628Z,61.70
2019-06-07T02:37:05.918Z,61.90
2019-06-07T02:38:13.934Z,61.90
2019-06-07T02:39:23.974Z,61.90
2019-06-07T02:40:36.009Z,61.80
2019-06-07T02:41:40.649Z,61.80
2019-06-07T02:42:48.689Z,61.80
2019-06-07T02:43:55.890Z,61.70
2019-06-07T02:45:03.924Z,61.60
2019-06-07T02:46:34.221Z,61.60
2019-06-07T02:47:36.107Z,61.50
2019-06-07T02:48:42.625Z,61.40
2019-06-07T02:49:50.652Z,61.40
2019-06-07T02:50:57.887Z,61.70
2019-06-07T02:52:06.010Z,61.50
2019-06-07T02:53:13.297Z,61.50
2019-06-07T02:54:21.530Z,61.30
2019-06-07T02:55:33.258Z,61.40
2019-06-07T02:56:53.922Z,61.20
2019-06-07T02:57:47.382Z,61.10
2019-06-07T02:58:55.390Z,61.00
2019-06-07T03:00:17.145Z,61.00
2019-06-07T03:01:12.770Z,61.00
2019-06-07T03:02:20.092Z,60.60
2019-06-07T03:03:28.913Z,60.40
2019-06-07T03:04:42.075Z,60.50
2019-06-07T03:05:47.650Z,60.40
2019-06-07T03:06:57.647Z,60.40
2019-06-07T03:08:08.381Z,60.40
2019-06-07T03:09:17.304Z,60.50
2019-06-07T03:10:28.548Z,60.30
2019-06-07T03:11:37.618Z,60.40
2019-06-07T03:12:49.887Z,60.50
2019-06-07T03:14:00.028Z,60.80
2019-06-07T03:15:09.108Z,60.90
2019-06-07T03:16:28.664Z,61.00
2019-06-07T03:18:03.146Z,61.50
2019-06-07T03:19:24.378Z,61.80
2019-06-07T03:20:36.744Z,61.10
2019-06-07T03:21:44.902Z,61.10
2019-06-07T03:22:53.809Z,61.10
2019-06-07T03:24:01.023Z,61.10
2019-06-07T03:25:09.415Z,61.30
2019-06-07T03:26:18.880Z,61.30
2019-06-07T03:27:39.415Z,61.20
2019-06-07T03:28:39.171Z,61.40
2019-06-07T03:29:46.420Z,61.30
2019-06-07T03:31:02.262Z,61.30
2019-06-07T03:32:03.343Z,61.50
2019-06-07T03:33:10.529Z,61.60
2019-06-07T03:34:18.519Z,61.20
2019-06-07T03:35:29.805Z,60.90
2019-06-07T03:36:39.207Z,60.70
2019-06-07T03:37:45.965Z,60.60
2019-06-07T03:38:53.949Z,60.40
2019-06-07T03:40:01.171Z,60.40
2019-06-07T03:41:10.231Z,60.20
2019-06-07T03:42:17.469Z,60.10
2019-06-07T03:43:27.276Z,60.10
2019-06-07T03:44:38.230Z,60.40
2019-06-07T03:45:45.146Z,60.30
2019-06-07T03:46:52.403Z,61.20
2019-06-07T03:48:00.380Z,60.60
2019-06-07T03:49:07.619Z,60.50
2019-06-07T03:50:15.616Z,60.90
2019-06-07T03:51:26.893Z,60.80
2019-06-07T03:52:35.572Z,61.00
2019-06-07T03:53:41.881Z,61.20
2019-06-07T03:54:49.889Z,61.30
2019-06-07T03:55:57.124Z,61.40
2019-06-07T03:57:05.133Z,61.50
2019-06-07T03:59:22.087Z,61.90
2019-06-07T04:00:32.459Z,62.10
2019-06-07T04:01:41.258Z,62.30
2019-06-07T04:02:48.686Z,62.40
2019-06-07T04:03:56.709Z,62.70
2019-06-07T04:05:04.109Z,62.70
2019-06-07T04:06:12.122Z,63.00
2019-06-07T04:07:19.361Z,63.80
2019-06-07T04:08:28.225Z,63.60
2019-06-07T04:09:39.458Z,63.80
2019-06-07T04:10:59.072Z,63.80
2019-06-07T04:11:54.234Z,63.80
2019-06-07T04:13:02.225Z,63.80
2019-06-07T04:14:09.453Z,63.80
2019-06-07T04:15:17.667Z,63.80
2019-06-07T04:16:24.897Z,63.80
2019-06-07T04:17:34.667Z,63.80
2019-06-07T04:18:42.505Z,63.80
2019-06-07T04:19:50.787Z,63.80
2019-06-07T04:20:57.981Z,63.80
2019-06-07T04:22:06.029Z,63.90
2019-06-07T04:23:27.596Z,64.00
2019-06-07T04:24:25.678Z,64.00
2019-06-07T04:25:35.641Z,63.80
2019-06-07T04:26:43.789Z,63.90
2019-06-07T04:27:51.608Z,64.30
2019-06-07T04:30:09.988Z,65.00
2019-06-07T04:31:17.991Z,64.90
2019-06-07T04:32:25.215Z,65.20
2019-06-07T04:33:34.980Z,65.60
2019-06-07T04:34:43.269Z,65.90
2019-06-07T04:35:51.779Z,66.20
2019-06-07T04:37:01.053Z,66.50
2019-06-07T04:38:09.088Z,66.60
2019-06-07T04:39:16.518Z,66.70
2019-06-07T04:40:24.500Z,67.00
2019-06-07T04:41:33.755Z,67.30
2019-06-07T04:42:46.047Z,67.20
2019-06-07T04:43:53.442Z,67.30
2019-06-07T04:45:03.573Z,67.40
2019-06-07T04:46:12.647Z,67.40
2019-06-07T04:47:22.144Z,67.30
2019-06-07T04:48:35.973Z,67.40
2019-06-07T04:49:45.575Z,67.30
2019-06-07T04:50:55.097Z,67.50
2019-06-07T04:52:05.356Z,67.50
2019-06-07T04:53:12.556Z,67.70
2019-06-07T04:54:20.572Z,67.60
2019-06-07T04:55:29.066Z,67.70
2019-06-07T04:56:40.829Z,67.70
2019-06-07T04:57:46.104Z,67.70
2019-06-07T04:58:54.112Z,68.00
2019-06-07T05:00:12.760Z,68.00
2019-06-07T05:01:26.228Z,68.20
2019-06-07T05:02:20.170Z,68.40
2019-06-07T05:03:30.566Z,68.30
2019-06-07T05:04:39.052Z,68.40
2019-06-07T05:05:46.888Z,68.50
2019-06-07T05:06:54.115Z,68.50
2019-06-07T05:08:07.407Z,68.40
2019-06-07T05:09:11.059Z,68.40
2019-06-07T05:10:19.133Z,68.40
2019-06-07T05:11:26.380Z,68.50
2019-06-07T05:12:36.073Z,68.50
2019-06-07T05:13:44.207Z,68.80
2019-06-07T05:14:52.333Z,68.70
2019-06-07T05:15:59.563Z,68.70
2019-06-07T05:17:07.610Z,68.60
2019-06-07T05:18:14.808Z,68.70
2019-06-07T05:19:22.798Z,68.80
2019-06-07T05:20:30.008Z,68.80
2019-06-07T05:22:01.925Z,68.70
2019-06-07T05:22:48.291Z,68.40
2019-06-07T05:24:06.293Z,68.60
2019-06-07T05:25:05.500Z,68.50
2019-06-07T05:26:13.522Z,68.60
2019-06-07T05:27:20.759Z,68.70
2019-06-07T05:28:29.775Z,68.70
2019-06-07T05:29:39.175Z,68.50
2019-06-07T05:31:56.353Z,69.00
2019-06-07T05:33:05.937Z,68.80
2019-06-07T05:34:13.161Z,68.90
2019-06-07T05:35:21.265Z,68.60
2019-06-07T05:36:28.445Z,68.90
2019-06-07T05:37:38.251Z,68.80
2019-06-07T05:38:45.498Z,68.70
2019-06-07T05:39:53.449Z,68.30
2019-06-07T05:41:00.674Z,68.20
2019-06-07T05:42:08.679Z,68.40
2019-06-07T05:43:25.385Z,68.30
2019-06-07T05:44:34.115Z,68.20
2019-06-07T05:45:44.923Z,68.30
2019-06-07T05:46:51.191Z,68.20
2019-06-07T05:47:58.387Z,68.30
2019-06-07T05:49:06.412Z,68.40
2019-06-07T05:50:38.538Z,68.50
2019-06-07T05:51:23.545Z,68.40
2019-06-07T05:52:30.742Z,68.40
2019-06-07T05:53:40.440Z,68.50
2019-06-07T05:54:47.905Z,68.30
2019-06-07T05:55:55.917Z,68.10
2019-06-07T05:57:03.152Z,68.10
2019-06-07T05:58:11.144Z,68.20
2019-06-07T05:59:18.355Z,68.70
2019-06-07T06:00:26.376Z,69.10
2019-06-07T06:02:02.055Z,69.30
2019-06-07T06:03:00.103Z,69.40
2019-06-07T06:03:52.181Z,69.30
2019-06-07T06:05:00.168Z,69.00
2019-06-07T06:06:07.439Z,69.40
2019-06-07T06:07:15.431Z,69.70
2019-06-07T06:08:22.673Z,70.10
2019-06-07T06:09:30.664Z,70.50
2019-06-07T06:10:40.356Z,71.30
2019-06-07T06:11:59.453Z,70.80
2019-06-07T06:12:56.575Z,70.20
2019-06-07T06:14:07.920Z,70.10
2019-06-07T06:15:14.151Z,70.30
2019-06-07T06:16:22.104Z,71.20
2019-06-07T06:17:29.328Z,70.70
2019-06-07T06:18:38.047Z,71.20
2019-06-07T06:19:49.653Z,70.80
2019-06-07T06:21:15.118Z,70.90
2019-06-07T06:22:04.038Z,70.10
2019-06-07T06:23:12.095Z,70.80
2019-06-07T06:24:19.316Z,71.50
2019-06-07T06:25:33.181Z,70.90
2019-06-07T06:26:38.447Z,71.30
2019-06-07T06:28:10.985Z,71.00
2019-06-07T06:28:56.348Z,71.50
2019-06-07T06:30:04.329Z,71.70
2019-06-07T06:31:11.565Z,71.90
2019-06-07T06:33:34.585Z,72.70
2019-06-07T06:34:40.125Z,72.60
2019-06-07T06:35:49.348Z,72.50
2019-06-07T06:36:56.834Z,71.70
2019-06-07T06:38:04.045Z,71.00
2019-06-07T06:39:12.034Z,70.90
2019-06-07T06:40:19.337Z,71.00
2019-06-07T06:41:27.345Z,71.60
2019-06-07T06:42:34.581Z,72.30
2019-06-07T06:43:46.781Z,72.70
2019-06-07T06:44:53.960Z,72.00
2019-06-07T06:46:01.239Z,72.10
2019-06-07T06:47:08.451Z,72.30
2019-06-07T06:48:16.471Z,71.90
2019-06-07T06:49:23.760Z,72.60
2019-06-07T06:50:31.703Z,71.70
2019-06-07T06:51:39.303Z,71.80
2019-06-07T06:52:53.410Z,71.60
2019-06-07T06:53:57.088Z,72.10
2019-06-07T06:55:07.005Z,72.60
2019-06-07T06:56:14.194Z,72.40
2019-06-07T06:57:22.209Z,72.70
2019-06-07T06:58:29.413Z,73.30
2019-06-07T06:59:39.643Z,74.00
2019-06-07T07:01:04.319Z,72.90
2019-06-07T07:01:59.266Z,72.10
2019-06-07T07:03:47.844Z,72.70
2019-06-07T07:04:16.885Z,72.70
2019-06-07T07:05:24.319Z,72.20
2019-06-07T07:06:32.415Z,72.20
2019-06-07T07:07:40.294Z,72.20
2019-06-07T07:08:50.909Z,71.50
2019-06-07T07:10:00.063Z,71.10
2019-06-07T07:11:09.756Z,71.10
2019-06-07T07:12:16.961Z,71.80
2019-06-07T07:13:24.966Z,72.20
2019-06-07T07:14:32.175Z,72.60
2019-06-07T07:15:42.912Z,72.90
2019-06-07T07:16:52.475Z,72.40
2019-06-07T07:18:08.210Z,72.90
2019-06-07T07:19:07.806Z,72.40
2019-06-07T07:20:16.107Z,72.70
2019-06-07T07:21:23.332Z,71.30
2019-06-07T07:22:31.311Z,71.20
2019-06-07T07:23:38.519Z,71.20
2019-06-07T07:24:46.994Z,71.40
2019-06-07T07:25:59.298Z,72.00
2019-06-07T07:27:05.148Z,71.20
2019-06-07T07:28:12.644Z,72.50
2019-06-07T07:29:20.638Z,72.80
2019-06-07T07:30:54.467Z,72.60
2019-06-07T07:31:59.541Z,73.40
2019-06-07T07:33:07.186Z,72.50
2019-06-07T07:34:33.560Z,71.80
2019-06-07T07:35:24.254Z,72.60
2019-06-07T07:36:39.491Z,73.00
2019-06-07T07:37:41.197Z,73.50
2019-06-07T07:38:55.775Z,72.70
2019-06-07T07:40:21.237Z,71.70
2019-06-07T07:41:15.249Z,72.60
2019-06-07T07:42:21.254Z,73.10
2019-06-07T07:43:26.569Z,72.80
2019-06-07T07:44:33.893Z,73.10
2019-06-07T07:45:45.984Z,71.70
2019-06-07T07:46:53.844Z,71.40
2019-06-07T07:48:14.785Z,70.30
2019-06-07T07:49:09.849Z,69.80
2019-06-07T07:50:18.079Z,69.50
2019-06-07T07:51:25.830Z,69.60
2019-06-07T07:52:33.824Z,70.00
2019-06-07T07:53:52.271Z,70.20
2019-06-07T07:54:52.864Z,71.60
2019-06-07T07:56:00.510Z,70.60
2019-06-07T07:57:08.952Z,69.70
2019-06-07T07:58:16.192Z,68.60
2019-06-07T07:59:41.284Z,68.60
2019-06-07T08:00:52.225Z,69.10
2019-06-07T08:01:46.007Z,69.20
2019-06-07T08:02:56.243Z,68.70
2019-06-07T08:04:02.855Z,69.10
2019-06-07T08:05:23.225Z,69.60
2019-06-07T08:06:19.497Z,69.30
2019-06-07T08:07:26.772Z,69.10
2019-06-07T08:08:34.882Z,69.20
2019-06-07T08:09:42.092Z,70.00
2019-06-07T08:10:52.605Z,69.10
2019-06-07T08:12:02.223Z,69.40
2019-06-07T08:13:27.596Z,68.90
2019-06-07T08:14:21.573Z,70.00
2019-06-07T08:15:29.576Z,69.10
2019-06-07T08:16:36.801Z,69.50
2019-06-07T08:17:47.077Z,68.00
2019-06-07T08:19:00.344Z,68.00
2019-06-07T08:20:03.461Z,68.10
2019-06-07T08:21:24.418Z,68.90
2019-06-07T08:22:20.393Z,69.20
2019-06-07T08:23:27.615Z,69.50
2019-06-07T08:24:35.620Z,69.80
2019-06-07T08:25:43.298Z,69.80
2019-06-07T08:27:12.494Z,69.60
2019-06-07T08:28:00.253Z,67.40
2019-06-07T08:29:08.700Z,66.20
2019-06-07T08:30:47.308Z,67.00
2019-06-07T08:31:27.737Z,66.20
2019-06-07T08:32:34.952Z,65.90
2019-06-07T08:33:42.969Z,66.10
2019-06-07T08:34:54.927Z,67.00
2019-06-07T08:36:13.928Z,65.90
2019-06-07T08:37:08.792Z,66.80
2019-06-07T08:38:29.789Z,67.00
2019-06-07T08:39:25.826Z,67.70
2019-06-07T08:40:33.827Z,66.40
2019-06-07T08:41:54.101Z,66.60
2019-06-07T08:43:10.864Z,66.80
2019-06-07T08:44:02.653Z,67.30
2019-06-07T08:45:10.414Z,67.40
2019-06-07T08:46:17.653Z,66.70
2019-06-07T08:47:25.658Z,66.30
2019-06-07T08:48:32.883Z,66.40
2019-06-07T08:49:40.931Z,66.60
2019-06-07T08:50:48.115Z,66.50
2019-06-07T08:52:04.549Z,66.30
2019-06-07T08:53:12.064Z,64.90
2019-06-07T08:54:22.972Z,65.10
2019-06-07T08:55:23.996Z,64.60
2019-06-07T08:56:32.005Z,65.60
2019-06-07T08:57:39.244Z,66.00
2019-06-07T08:58:47.222Z,65.30
2019-06-07T08:59:56.595Z,65.40
2019-06-07T09:01:08.323Z,65.80
2019-06-07T09:02:23.336Z,65.50
2019-06-07T09:03:22.713Z,64.80
2019-06-07T09:04:29.935Z,63.80
2019-06-07T09:05:37.956Z,63.60
2019-06-07T09:08:21.220Z,65.30
2019-06-07T09:09:05.371Z,63.00
2019-06-07T09:10:15.553Z,63.10
2019-06-07T09:11:22.864Z,60.70
2019-06-07T09:12:30.872Z,61.20
2019-06-07T09:13:38.078Z,60.50
2019-06-07T09:14:59.978Z,60.30
2019-06-07T09:15:55.975Z,60.20
2019-06-07T09:17:11.183Z,59.70
2019-06-07T09:19:23.315Z,61.20
2019-06-07T09:20:45.830Z,61.00
2019-06-07T09:21:54.683Z,61.00
2019-06-07T09:23:11.563Z,60.50
2019-06-07T09:24:12.455Z,62.00
2019-06-07T09:25:21.430Z,61.90
2019-06-07T09:26:30.059Z,61.50
2019-06-07T09:27:37.857Z,62.10
2019-06-07T09:28:46.658Z,61.90
2019-06-07T09:29:54.063Z,61.30
2019-06-07T09:31:06.929Z,60.70
2019-06-07T09:32:16.315Z,59.70
2019-06-07T09:33:20.716Z,59.20
2019-06-07T09:34:27.925Z,59.30
2019-06-07T09:35:36.105Z,58.80
2019-06-07T09:36:43.629Z,59.00
2019-06-07T09:38:07.289Z,59.70
2019-06-07T09:39:07.619Z,60.50
2019-06-07T09:40:24.857Z,58.90
2019-06-07T09:41:21.250Z,58.50
2019-06-07T09:42:29.259Z,58.20
2019-06-07T09:44:46.182Z,59.60
2019-06-07T09:45:53.411Z,59.60
2019-06-07T09:47:20.647Z,59.60
2019-06-07T09:48:16.038Z,60.00
2019-06-07T09:49:31.408Z,60.90
2019-06-07T09:50:28.930Z,60.20
2019-06-07T09:51:36.954Z,59.80
2019-06-07T09:52:57.809Z,59.80
2019-06-07T09:53:53.897Z,60.00
2019-06-07T09:55:09.375Z,59.90
2019-06-07T09:56:12.089Z,59.80
2019-06-07T09:57:19.701Z,59.60
2019-06-07T09:58:51.193Z,59.50
2019-06-07T09:59:36.636Z,59.20
2019-06-07T10:00:44.650Z,58.70
2019-06-07T10:01:51.841Z,58.50
2019-06-07T10:03:09.478Z,57.50
2019-06-07T10:04:26.763Z,57.90
2019-06-07T10:05:18.797Z,58.00
2019-06-07T10:06:26.023Z,58.80
2019-06-07T10:07:34.035Z,58.30
2019-06-07T10:10:12.642Z,57.60
2019-06-07T10:11:04.743Z,56.20
2019-06-07T10:12:12.807Z,56.80
2019-06-07T10:13:20.018Z,56.20
2019-06-07T10:14:28.009Z,57.10
2019-06-07T10:15:35.324Z,58.20
2019-06-07T10:16:46.694Z,57.50
2019-06-07T10:17:52.266Z,57.20
2019-06-07T10:19:01.575Z,57.40
2019-06-07T10:20:09.878Z,57.00
2019-06-07T10:21:17.982Z,56.50
2019-06-07T10:22:25.205Z,56.50
2019-06-07T10:23:33.204Z,56.70
2019-06-07T10:24:40.406Z,55.80
2019-06-07T10:25:48.397Z,56.80
2019-06-07T10:26:55.639Z,56.50
2019-06-07T10:28:03.890Z,56.80
2019-06-07T10:29:11.225Z,56.70
2019-06-07T10:30:19.208Z,56.90
2019-06-07T10:31:26.425Z,56.50
2019-06-07T10:32:34.442Z,57.20
2019-06-07T10:33:41.655Z,56.00
2019-06-07T10:34:49.644Z,56.20
2019-06-07T10:35:56.852Z,55.10
2019-06-07T10:37:07.622Z,56.00
2019-06-07T10:38:13.795Z,55.40
2019-06-07T10:39:21.788Z,55.40
2019-06-07T10:40:28.996Z,55.30
2019-06-07T10:41:37.001Z,54.20
2019-06-07T10:42:44.214Z,54.00
2019-06-07T10:43:52.224Z,55.30
2019-06-07T10:44:59.446Z,54.40
2019-06-07T10:46:07.705Z,54.30
2019-06-07T10:47:15.038Z,53.30
2019-06-07T10:48:25.034Z,53.40
2019-06-07T10:49:31.966Z,53.80
2019-06-07T10:50:39.991Z,53.30
2019-06-07T10:51:47.213Z,52.30
2019-06-07T10:52:55.219Z,52.30
2019-06-07T10:54:10.958Z,53.90
2019-06-07T10:55:12.731Z,54.20
2019-06-07T10:56:19.929Z,53.60
2019-06-07T10:57:27.942Z,53.60
2019-06-07T10:58:35.160Z,53.80
2019-06-07T10:59:43.152Z,54.20
2019-06-07T11:00:50.393Z,54.20
2019-06-07T11:01:58.383Z,52.20
2019-06-07T11:03:06.049Z,51.60
2019-06-07T11:04:14.129Z,51.90
2019-06-07T11:05:21.444Z,51.10
2019-06-07T11:06:29.437Z,51.80
2019-06-07T11:07:36.720Z,50.90
2019-06-07T11:08:44.740Z,51.50
2019-06-07T11:10:06.379Z,51.80
2019-06-07T11:11:01.667Z,52.40
2019-06-07T11:12:10.572Z,52.80
2019-06-07T11:13:18.778Z,52.70
2019-06-07T11:14:25.985Z,53.10
2019-06-07T11:15:34.008Z,52.90
2019-06-07T11:16:41.233Z,52.50
2019-06-07T11:17:49.269Z,52.60
2019-06-07T11:18:56.495Z,51.80
2019-06-07T11:20:06.054Z,51.20
2019-06-07T11:21:14.314Z,50.70
2019-06-07T11:22:22.479Z,50.00
2019-06-07T11:23:29.705Z,50.70
2019-06-07T11:24:38.782Z,50.30
2019-06-07T11:25:46.017Z,51.20
2019-06-07T11:26:54.055Z,51.50
2019-06-07T11:28:01.294Z,51.20
2019-06-07T11:29:10.766Z,51.30
2019-06-07T11:30:18.798Z,50.30
2019-06-07T11:31:26.818Z,50.40
2019-06-07T11:32:34.039Z,50.20
2019-06-07T11:33:42.033Z,50.10
2019-06-07T11:34:49.242Z,50.30
2019-06-07T11:35:57.232Z,50.00
2019-06-07T11:37:04.656Z,48.30
2019-06-07T11:38:12.698Z,48.90
2019-06-07T11:39:19.902Z,49.60
2019-06-07T11:40:34.861Z,48.40
2019-06-07T11:41:36.835Z,49.00
2019-06-07T11:42:44.836Z,49.20
2019-06-07T11:43:52.062Z,49.00
2019-06-07T11:45:00.067Z,49.10
2019-06-07T11:46:07.278Z,49.10
2019-06-07T11:47:15.272Z,49.10
2019-06-07T11:48:23.576Z,49.10
2019-06-07T11:49:31.568Z,48.20
2019-06-07T11:50:38.795Z,47.50
2019-06-07T11:51:46.818Z,46.20
2019-06-07T11:52:54.056Z,46.10
2019-06-07T11:54:02.047Z,47.00
2019-06-07T11:55:11.345Z,47.10
2019-06-07T11:56:19.199Z,46.60
2019-06-07T11:57:26.427Z,46.80
2019-06-07T11:58:34.432Z,46.90
2019-06-07T11:59:41.688Z,46.30
2019-06-07T12:00:49.914Z,46.00
2019-06-07T12:01:57.115Z,46.00
2019-06-07T12:03:07.422Z,45.10
2019-06-07T12:04:31.158Z,45.60
2019-06-07T12:05:24.495Z,46.20
2019-06-07T12:06:31.707Z,46.80
2019-06-07T12:07:39.701Z,46.30
2019-06-07T12:08:46.922Z,47.20
2019-06-07T12:09:56.691Z,47.80
2019-06-07T12:11:03.862Z,48.10
2019-06-07T12:12:12.606Z,47.70
2019-06-07T12:13:19.980Z,46.80
2019-06-07T12:14:27.988Z,47.80
2019-06-07T12:15:35.197Z,47.30
2019-06-07T12:16:43.222Z,47.20
2019-06-07T12:17:50.429Z,48.20
2019-06-07T12:18:58.435Z,48.70
2019-06-07T12:20:08.771Z,47.20
2019-06-07T12:21:17.951Z,46.40
2019-06-07T12:22:25.384Z,45.60
2019-06-07T12:23:33.374Z,45.50
2019-06-07T12:24:40.717Z,45.30
2019-06-07T12:25:48.724Z,45.30
2019-06-07T12:26:55.950Z,45.50
2019-06-07T12:28:03.985Z,45.60
2019-06-07T12:29:11.210Z,45.10
2019-06-07T12:30:26.268Z,45.30
2019-06-07T12:31:28.352Z,45.50
2019-06-07T12:32:36.354Z,44.30
2019-06-07T12:33:43.596Z,44.10
2019-06-07T12:34:51.606Z,42.80
2019-06-07T12:35:58.815Z,43.00
2019-06-07T12:37:06.857Z,43.20
2019-06-07T12:38:14.605Z,44.20
2019-06-07T12:39:23.180Z,43.80
2019-06-07T12:40:32.387Z,43.70
2019-06-07T12:41:40.119Z,43.40
2019-06-07T12:42:47.344Z,43.60
2019-06-07T12:43:58.976Z,43.00
2019-06-07T12:45:04.452Z,42.90
2019-06-07T12:46:15.436Z,43.30
2019-06-07T12:47:21.372Z,43.60
2019-06-07T12:48:29.390Z,43.70
2019-06-07T12:49:36.604Z,43.50
2019-06-07T12:50:44.634Z,43.50
2019-06-07T12:51:51.859Z,44.40
2019-06-07T12:52:59.883Z,44.20
2019-06-07T12:54:08.081Z,44.90
2019-06-07T12:55:18.109Z,45.00
2019-06-07T12:56:25.369Z,44.30
2019-06-07T12:57:33.374Z,43.20
2019-06-07T12:58:40.599Z,42.80
2019-06-07T12:59:48.596Z,42.20
2019-06-07T13:00:59.519Z,42.00
2019-06-07T13:02:05.506Z,41.40
2019-06-07T13:03:14.154Z,41.90
2019-06-07T13:04:22.566Z,42.30
2019-06-07T13:05:29.882Z,42.10
2019-06-07T13:06:37.975Z,43.00
2019-06-07T13:07:45.186Z,43.90
2019-06-07T13:08:53.261Z,42.80
2019-06-07T13:10:00.466Z,43.00
2019-06-07T13:11:15.981Z,43.50
2019-06-07T13:12:17.607Z,44.50
2019-06-07T13:13:25.697Z,42.70
2019-06-07T13:14:32.893Z,41.70
2019-06-07T13:15:40.917Z,41.80
2019-06-07T13:16:48.173Z,42.50
2019-06-07T13:17:56.225Z,41.80
2019-06-07T13:19:03.447Z,42.30
2019-06-07T13:20:12.459Z,41.00
2019-06-07T13:21:20.266Z,41.20
2019-06-07T13:22:28.648Z,40.20
2019-06-07T13:23:35.940Z,41.50
2019-06-07T13:24:43.945Z,42.00
2019-06-07T13:25:51.304Z,43.60
2019-06-07T13:26:59.296Z,41.70
2019-06-07T13:28:06.662Z,41.80
2019-06-07T13:29:14.675Z,42.40
2019-06-07T13:30:23.524Z,43.20
2019-06-07T13:31:31.830Z,42.30
2019-06-07T13:32:39.039Z,42.70
2019-06-07T13:33:47.051Z,42.50
2019-06-07T13:34:54.282Z,42.00
2019-06-07T13:36:02.323Z,41.80
2019-06-07T13:37:09.596Z,41.70
2019-06-07T13:38:26.915Z,41.60
2019-06-07T13:39:34.165Z,41.40
2019-06-07T13:40:42.167Z,41.70
2019-06-07T13:41:49.373Z,41.90
2019-06-07T13:42:57.367Z,42.00
2019-06-07T13:44:04.619Z,42.20
2019-06-07T13:45:13.031Z,41.80
2019-06-07T13:46:20.944Z,42.20
2019-06-07T13:47:29.149Z,42.60
2019-06-07T13:48:36.406Z,42.10
2019-06-07T13:49:44.399Z,41.20
2019-06-07T13:50:51.641Z,39.80
2019-06-07T13:51:59.838Z,39.90
2019-06-07T13:53:07.034Z,39.80
2019-06-07T13:54:15.053Z,39.60
2019-06-07T13:55:23.845Z,40.30
2019-06-07T13:56:32.064Z,39.70
2019-06-07T13:57:39.283Z,40.10
2019-06-07T13:58:47.292Z,39.50
2019-06-07T13:59:54.533Z,39.40
2019-06-07T14:01:02.555Z,40.40
2019-06-07T14:02:09.768Z,39.60
2019-06-07T14:03:22.020Z,39.30
2019-06-07T14:04:27.104Z,40.10
2019-06-07T14:05:35.245Z,39.80
2019-06-07T14:06:42.386Z,39.80
2019-06-07T14:07:50.412Z,40.00
2019-06-07T14:08:57.635Z,39.90
2019-06-07T14:10:06.209Z,39.30
2019-06-07T14:11:13.435Z,39.60
2019-06-07T14:12:22.215Z,39.70
2019-06-07T14:13:30.472Z,38.90
2019-06-07T14:14:38.448Z,38.80
2019-06-07T14:15:45.652Z,39.90
2019-06-07T14:16:53.676Z,40.40
2019-06-07T14:18:00.872Z,41.70
2019-06-07T14:19:08.856Z,40.70
2019-06-07T14:20:17.545Z,39.90
2019-06-07T14:21:26.659Z,39.50
2019-06-07T14:22:33.978Z,40.60
2019-06-07T14:23:48.610Z,41.10
2019-06-07T14:24:50.923Z,41.70
2019-06-07T14:25:58.940Z,42.20
2019-06-07T14:27:06.254Z,42.00
2019-06-07T14:28:15.364Z,40.40
2019-06-07T14:29:23.612Z,40.70
2019-06-07T14:30:32.638Z,41.10
2019-06-07T14:31:40.122Z,40.20
2019-06-07T14:32:48.143Z,39.40
2019-06-07T14:33:55.357Z,40.00
2019-06-07T14:35:03.363Z,40.60
2019-06-07T14:36:10.842Z,41.40
2019-06-07T14:37:18.848Z,41.30
2019-06-07T14:38:27.385Z,40.80
2019-06-07T14:39:35.461Z,40.20
2019-06-07T14:40:42.685Z,39.80
2019-06-07T14:42:07.925Z,40.40
2019-06-07T14:42:59.793Z,40.30
2019-06-07T14:44:07.783Z,39.90
2019-06-07T14:45:16.406Z,40.00
2019-06-07T14:46:25.564Z,39.90
2019-06-07T14:47:34.143Z,39.80
2019-06-07T14:48:42.322Z,40.00
2019-06-07T14:49:49.482Z,39.50
2019-06-07T14:50:57.479Z,39.70
2019-06-07T14:52:05.019Z,40.50